Disclaimer

Please do not use the information listed here in-flight or in-navigation, as they are not provided to us by the airports but are provided by volunteers, so they might be outdated.

Search


Regions


Airport information page

Radio informations:
TWR/APP - 120.7 MHz

Airport informations:
Latitude: 25° 44' 14.21" S
Longitude: 054° 28' 24.40" W
Elevation: 916 feet - 279 meters
Operating hours: 24 hour operations
Operating agency: Civil government, landing fees and diplomatic clearance may be required
Timezone: UTC-3
Fuel: Jet A1, without icing nhibitor.

100/130 MIL Spec, low lead, aviation gasoline (BLUE)

Runway information:
13/31 - 10826 x 148 feet< - >3300 x 45 meters

Recent METARs:
SARI 210600Z 00000KT CAVOK 20/19 Q1014
SARI 210600Z 00000KT CAVOK 20/19 Q1014
SARI 210700Z 07007KT CAVOK 20/19 Q1015

Airport on the map: